Time;durP1;ratioP1;P1;durP2;ratioP2;P2;SDS_P1;SDS_P2;PMS_P1;PMS_P2;Temp;Humidity;BMP_temperature;BMP_pressure;BME280_temperature;BME280_humidity;BME280_pressure;Samples;Min_cycle;Max_cycle;Signal;HPM_P1;HPM_P2
2022/08/22 00:01:04;;;;;;;0.00;0.00;;;;;;;19.68;57.32;100659.00;7354476;19;20014;-62
2022/08/22 00:03:44;;;;;;;0.00;0.00;;;;;;;19.58;55.09;100644.59;7333747;19;20021;-62
2022/08/22 00:06:29;;;;;;;0.00;0.00;;;;;;;19.74;55.63;100663.91;7349737;19;20090;-62
2022/08/22 00:09:01;;;;;;;0.00;0.00;;;;;;;19.75;57.32;100659.47;7348133;19;20014;-62
2022/08/22 00:11:46;;;;;;;0.00;0.00;;;;;;;19.78;55.80;100646.91;7354218;19;20010;-63
2022/08/22 00:14:50;;;;;;;0.00;0.00;;;;;;;19.80;54.74;100642.34;7362119;19;20013;-62
2022/08/22 00:17:24;;;;;;;0.10;0.10;;;;;;;19.81;56.02;100648.50;7248972;19;2004306;-62
2022/08/22 00:20:08;;;;;;;0.00;0.00;;;;;;;19.71;54.86;100621.72;7358708;19;20010;-62
2022/08/22 00:22:55;;;;;;;0.10;0.10;;;;;;;19.81;55.05;100646.69;7361794;19;20018;-63
2022/08/22 00:25:46;;;;;;;0.00;0.00;;;;;;;19.81;55.46;100638.75;7362510;19;20035;-62
2022/08/22 00:28:16;;;;;;;0.00;0.00;;;;;;;19.79;57.31;100635.34;7262029;19;2004457;-62
2022/08/22 00:30:53;;;;;;;0.00;0.00;;;;;;;19.77;55.95;100631.94;7361405;19;20002;-62
2022/08/22 00:33:29;;;;;;;0.00;0.00;;;;;;;19.74;56.23;100633.94;7363900;19;20010;-62
2022/08/22 00:36:14;;;;;;;0.00;0.00;;;;;;;19.68;56.33;100621.91;7364797;19;20014;-62
2022/08/22 00:38:47;;;;;;;0.00;0.00;;;;;;;19.66;57.54;100621.13;7362076;19;20010;-63
2022/08/22 00:41:47;;;;;;;0.00;0.00;;;;;;;19.64;55.99;100601.84;7364903;19;20010;-62
2022/08/22 00:44:28;;;;;;;0.00;0.00;;;;;;;19.35;56.25;100562.09;7262038;19;2004265;-62
2022/08/22 00:47:35;;;;;;;0.00;0.00;;;;;;;19.60;57.32;100610.94;7361461;19;20007;-62
2022/08/22 00:50:48;;;;;;;0.00;0.00;;;;;;;19.55;54.53;100610.31;7257559;19;2004515;-63
2022/08/22 00:53:16;;;;;;;0.00;0.00;;;;;;;19.48;59.45;100615.16;7258094;19;2004372;-62
2022/08/22 00:56:17;;;;;;;0.00;0.00;;;;;;;19.46;55.86;100611.72;7362685;19;20026;-63
2022/08/22 00:58:51;;;;;;;0.00;0.00;;;;;;;19.42;58.43;100616.38;7262132;19;2004322;-62
2022/08/22 01:01:24;;;;;;;0.00;0.00;;;;;;;19.39;59.80;100616.56;7362485;19;20021;-62
2022/08/22 01:04:04;;;;;;;0.00;0.00;;;;;;;19.36;59.21;100619.41;7362774;19;20011;-63
2022/08/22 01:06:55;;;;;;;0.00;0.00;;;;;;;19.33;57.65;100611.66;7362322;19;19999;-63
2022/08/22 01:09:53;;;;;;;0.00;0.00;;;;;;;19.20;58.45;100597.44;7259067;19;2004620;-62
2022/08/22 01:12:44;;;;;;;0.00;0.00;;;;;;;19.23;64.41;100613.16;7260760;19;2004376;-62
2022/08/22 01:15:22;;;;;;;0.00;0.00;;;;;;;19.11;63.29;100598.84;7358505;19;20545;-62
2022/08/22 01:18:06;;;;;;;0.00;0.00;;;;;;;19.12;63.60;100603.19;7362279;19;20007;-62
2022/08/22 01:21:02;;;;;;;0.00;0.00;;;;;;;19.04;65.43;100584.25;7359265;19;20816;-62
2022/08/22 01:23:49;;;;;;;0.00;0.00;;;;;;;18.95;64.06;100582.16;7258553;19;2004437;-62
2022/08/22 01:26:45;;;;;;;0.00;0.00;;;;;;;18.87;63.08;100572.06;7257032;19;2004289;-62
2022/08/22 01:29:13;;;;;;;0.00;0.00;;;;;;;18.77;68.72;100576.19;7262066;19;2004659;-62
2022/08/22 01:31:51;;;;;;;0.00;0.00;;;;;;;18.69;68.72;100570.47;7365773;19;20149;-62
2022/08/22 01:34:35;;;;;;;0.00;0.00;;;;;;;18.62;63.08;100566.47;7361886;19;20114;-62
2022/08/22 01:37:41;;;;;;;0.00;0.00;;;;;;;18.57;62.60;100573.81;7364672;19;20022;-62
2022/08/22 01:40:29;;;;;;;0.00;0.00;;;;;;;18.46;70.57;100570.94;7260990;19;2004416;-62
2022/08/22 01:43:06;;;;;;;0.00;0.00;;;;;;;18.44;68.41;100565.72;7362261;19;20035;-62
2022/08/22 01:45:31;;;;;;;0.00;0.00;;;;;;;18.40;69.96;100557.13;7365538;19;20482;-62
2022/08/22 01:48:11;;;;;;;0.00;0.00;;;;;;;18.42;71.37;100557.88;7362890;19;20010;-62
2022/08/22 01:50:48;;;;;;;0.00;0.00;;;;;;;18.39;69.61;100546.63;7366477;19;20006;-62
2022/08/22 01:53:55;;;;;;;0.00;0.00;;;;;;;18.42;65.90;100544.66;7366187;19;20018;-62
2022/08/22 01:56:24;;;;;;;0.00;0.00;;;;;;;18.34;71.14;100536.31;7260203;19;2004295;-62
2022/08/22 01:58:57;;;;;;;0.00;0.00;;;;;;;18.40;68.64;100540.44;7354149;19;20589;-63
2022/08/22 02:01:30;;;;;;;0.00;0.00;;;;;;;18.39;69.68;100539.53;7359650;19;20018;-63
2022/08/22 02:04:14;;;;;;;0.00;0.00;;;;;;;18.38;67.04;100543.13;7360589;19;20010;-62
2022/08/22 02:07:03;;;;;;;0.00;0.00;;;;;;;18.37;68.77;100536.16;7358955;19;20029;-63
2022/08/22 02:09:52;;;;;;;0.00;0.00;;;;;;;18.32;70.92;100532.91;7361426;19;20368;-63
2022/08/22 02:12:35;;;;;;;0.00;0.00;;;;;;;18.37;70.89;100530.84;7363482;19;20018;-63
2022/08/22 02:15:27;;;;;;;0.00;0.00;;;;;;;18.38;70.21;100532.56;7359683;19;20860;-63
2022/08/22 02:18:01;;;;;;;0.00;0.00;;;;;;;18.38;69.76;100527.28;7258426;19;2004326;-63
2022/08/22 02:21:03;;;;;;;0.05;0.05;;;;;;;18.39;66.85;100513.09;7362464;19;20014;-63
2022/08/22 02:23:55;;;;;;;0.00;0.00;;;;;;;18.39;71.02;100518.38;7257369;19;2004497;-63
2022/08/22 02:26:27;;;;;;;0.00;0.00;;;;;;;18.40;71.54;100512.19;7359763;19;20017;-63
2022/08/22 02:29:10;;;;;;;0.00;0.00;;;;;;;18.42;69.97;100507.66;7359670;19;20002;-63
2022/08/22 02:31:45;;;;;;;0.00;0.00;;;;;;;18.41;71.81;100511.25;7359261;19;20474;-63
2022/08/22 02:34:38;;;;;;;0.00;0.00;;;;;;;18.48;69.41;100516.16;7362042;19;20024;-62
2022/08/22 02:37:30;;;;;;;0.00;0.00;;;;;;;18.49;69.69;100515.22;7258486;19;2004600;-63
2022/08/22 02:40:32;;;;;;;0.00;0.00;;;;;;;18.50;68.59;100517.78;7254963;19;2004605;-62
2022/08/22 02:43:17;;;;;;;0.10;0.10;;;;;;;18.50;70.65;100517.78;7253343;19;2004423;-62
2022/08/22 02:45:54;;;;;;;0.00;0.00;;;;;;;18.52;69.81;100507.13;7360094;19;20021;-63
2022/08/22 02:48:25;;;;;;;0.00;0.00;;;;;;;18.49;72.16;100512.56;7363163;19;20010;-63
2022/08/22 02:51:15;;;;;;;0.00;0.00;;;;;;;18.54;69.60;100510.50;7356504;19;20043;-63
2022/08/22 02:53:48;;;;;;;0.00;0.00;;;;;;;18.54;71.75;100502.56;7360832;19;20034;-63
2022/08/22 02:56:14;;;;;;;0.00;0.00;;;;;;;18.54;73.88;100506.06;7359358;19;20022;-63
2022/08/22 02:59:11;;;;;;;0.00;0.00;;;;;;;18.60;68.87;100504.84;7356605;19;20014;-63
2022/08/22 03:01:44;;;;;;;0.00;0.00;;;;;;;18.61;71.87;100502.13;7257079;19;2004520;-62
2022/08/22 03:04:30;;;;;;;0.00;0.00;;;;;;;18.63;69.53;100499.41;7347904;19;20820;-63
2022/08/22 03:07:28;;;;;;;0.00;0.00;;;;;;;18.67;69.15;100487.69;7358877;19;20512;-63
2022/08/22 03:10:19;;;;;;;0.00;0.00;;;;;;;18.67;69.78;100490.34;7256218;19;2004343;-62
2022/08/22 03:12:57;;;;;;;0.00;0.00;;;;;;;18.69;70.98;100487.63;7361169;19;20007;-62
2022/08/22 03:15:26;;;;;;;0.00;0.00;;;;;;;18.69;71.29;100477.91;7361135;19;20007;-63
2022/08/22 03:18:05;;;;;;;0.00;0.00;;;;;;;18.69;71.37;100483.19;7358266;19;20006;-62
2022/08/22 03:20:43;;;;;;;0.00;0.00;;;;;;;18.71;70.28;100473.38;7355356;19;20083;-62
2022/08/22 03:23:33;;;;;;;0.00;0.00;;;;;;;18.72;70.59;100475.09;7360115;19;20021;-62
2022/08/22 03:26:01;;;;;;;0.00;0.00;;;;;;;18.70;71.14;100463.72;7362211;19;21139;-63
2022/08/22 03:28:37;;;;;;;0.00;0.00;;;;;;;18.73;69.18;100452.97;7360414;19;20408;-63
2022/08/22 03:31:14;;;;;;;0.00;0.00;;;;;;;18.72;70.01;100458.38;7362492;19;20082;-63
2022/08/22 03:33:41;;;;;;;0.00;0.00;;;;;;;18.60;71.92;100441.38;7360458;19;20568;-63
2022/08/22 03:36:26;;;;;;;0.00;0.00;;;;;;;18.73;69.54;100452.13;7369133;19;20043;-61
2022/08/22 03:39:16;;;;;;;0.00;0.00;;;;;;;18.62;70.67;100445.66;7366920;19;20007;-63
2022/08/22 03:42:09;;;;;;;0.00;0.00;;;;;;;18.74;68.58;100465.25;7267812;19;2004408;-63
2022/08/22 03:44:44;;;;;;;0.00;0.00;;;;;;;18.74;70.73;100470.53;7264773;19;2005032;-63
2022/08/22 03:47:19;;;;;;;0.00;0.00;;;;;;;18.68;69.80;100460.31;7368363;19;20561;-62
2022/08/22 03:49:48;;;;;;;0.00;0.00;;;;;;;18.73;70.30;100468.84;7365436;19;20018;-63
2022/08/22 03:55:43;;;;;;;0.00;0.00;;;;;;;18.73;71.11;100460.06;7263076;19;2004441;-63
2022/08/22 03:58:26;;;;;;;0.00;0.00;;;;;;;18.73;70.10;100452.97;7367124;19;20085;-63
2022/08/22 04:01:12;;;;;;;0.00;0.00;;;;;;;18.74;70.58;100448.53;7367764;19;20760;-62
2022/08/22 04:04:01;;;;;;;0.00;0.00;;;;;;;18.74;71.88;100446.72;7366490;19;20006;-63
2022/08/22 04:06:29;;;;;;;0.00;0.00;;;;;;;18.74;73.48;100437.94;7367096;19;20021;-63
2022/08/22 04:09:17;;;;;;;0.00;0.00;;;;;;;18.79;71.46;100436.72;7366850;19;20101;-62
2022/08/22 04:12:07;;;;;;;0.00;0.00;;;;;;;18.82;71.16;100425.97;7364934;19;20027;-63
2022/08/22 04:14:58;;;;;;;0.00;0.00;;;;;;;18.85;73.06;100419.63;7366508;19;20015;-62
2022/08/22 04:17:29;;;;;;;0.00;0.00;;;;;;;18.85;74.37;100409.88;7266205;19;2004567;-62
2022/08/22 04:20:42;;;;;;;0.00;0.00;;;;;;;18.91;72.61;100414.81;7364518;19;20035;-63
2022/08/22 04:23:51;;;;;;;0.00;0.00;;;;;;;18.99;71.17;100413.47;7260472;19;2004252;-63
2022/08/22 04:26:27;;;;;;;0.00;0.00;;;;;;;18.99;73.04;100408.19;7261162;19;2004440;-63
2022/08/22 04:28:59;;;;;;;0.00;0.00;;;;;;;18.97;73.90;100391.56;7363438;19;20017;-62
2022/08/22 04:31:41;;;;;;;0.00;0.00;;;;;;;19.04;74.02;100399.00;7368284;19;20038;-63
2022/08/22 04:34:24;;;;;;;0.10;0.10;;;;;;;19.06;72.12;100391.84;7366909;19;20026;-63
2022/08/22 04:36:56;;;;;;;0.05;0.05;;;;;;;19.06;73.70;100391.84;7368050;19;20015;-62
2022/08/22 04:39:31;;;;;;;0.00;0.00;;;;;;;19.11;74.55;100395.06;7367110;19;20015;-63
2022/08/22 04:42:07;;;;;;;0.00;0.00;;;;;;;19.16;73.37;100392.97;7366250;19;20010;-62
2022/08/22 04:44:32;;;;;;;0.00;0.00;;;;;;;19.15;74.41;100395.69;7365439;19;20006;-63
2022/08/22 04:47:29;;;;;;;0.00;0.00;;;;;;;19.22;72.00;100397.00;7367130;19;22333;-63
2022/08/22 04:50:13;;;;;;;0.00;0.00;;;;;;;19.23;71.49;100393.41;7265249;19;2004362;-63
2022/08/22 04:52:47;;;;;;;0.00;0.00;;;;;;;19.23;72.84;100381.97;7365985;19;20100;-63
2022/08/22 04:55:48;;;;;;;0.00;0.00;;;;;;;19.24;71.88;100379.22;7367497;19;20042;-63
2022/08/22 04:58:38;;;;;;;0.03;0.03;;;;;;;19.24;71.84;100378.38;7262279;19;2004342;-62
2022/08/22 05:01:06;;;;;;;0.00;0.00;;;;;;;19.22;73.57;100381.13;7366975;19;20566;-63
2022/08/22 05:03:36;;;;;;;0.00;0.00;;;;;;;19.21;73.60;100379.44;7363778;19;20443;-62
2022/08/22 05:06:04;;;;;;;0.00;0.00;;;;;;;19.20;74.09;100380.34;7365218;19;21052;-63
2022/08/22 05:08:33;;;;;;;0.00;0.00;;;;;;;19.19;73.80;100376.88;7364227;19;20014;-63
2022/08/22 05:11:02;;;;;;;0.00;0.00;;;;;;;19.19;73.68;100381.31;7367188;19;20451;-63
2022/08/22 05:13:35;;;;;;;0.00;0.00;;;;;;;19.09;73.66;100359.03;7365090;19;20098;-62
2022/08/22 05:16:05;;;;;;;0.00;0.00;;;;;;;19.15;73.83;100385.09;7367720;19;20399;-62
2022/08/22 05:18:46;;;;;;;0.00;0.00;;;;;;;19.18;72.62;100369.88;7362076;19;20006;-62
2022/08/22 05:21:14;;;;;;;0.00;0.00;;;;;;;19.16;74.67;100370.94;7367279;19;20372;-63
2022/08/22 05:23:49;;;;;;;0.00;0.00;;;;;;;19.18;72.85;100363.75;7364120;19;20010;-63
2022/08/22 05:26:17;;;;;;;0.00;0.00;;;;;;;19.15;74.04;100358.63;7363877;19;20026;-63
2022/08/22 05:28:46;;;;;;;0.00;0.00;;;;;;;19.17;74.03;100362.03;7365165;19;20934;-63
2022/08/22 05:31:22;;;;;;;0.05;0.05;;;;;;;19.18;73.52;100363.75;7364560;19;20022;-63
2022/08/22 05:33:52;;;;;;;0.00;0.00;;;;;;;19.16;74.20;100365.66;7363992;19;20014;-63
2022/08/22 05:36:30;;;;;;;0.00;0.00;;;;;;;19.16;74.31;100358.56;7363763;19;20023;-63
2022/08/22 05:39:15;;;;;;;0.00;0.00;;;;;;;19.13;71.75;100334.91;7362789;19;20473;-63
2022/08/22 05:41:41;;;;;;;0.00;0.00;;;;;;;19.14;73.37;100349.00;7366265;19;20023;-63
2022/08/22 05:44:25;;;;;;;0.00;0.00;;;;;;;19.14;72.99;100349.00;7363349;19;20041;-63
2022/08/22 05:47:12;;;;;;;0.00;0.00;;;;;;;19.16;72.46;100355.06;7366066;19;20018;-63
2022/08/22 05:50:02;;;;;;;0.00;0.00;;;;;;;19.14;72.27;100347.19;7361650;19;20010;-63
2022/08/22 05:52:46;;;;;;;0.00;0.00;;;;;;;19.14;73.04;100351.63;7363682;19;20081;-62
2022/08/22 05:55:22;;;;;;;0.00;0.00;;;;;;;19.15;72.53;100350.69;7365171;19;20010;-63
2022/08/22 05:58:12;;;;;;;0.00;0.00;;;;;;;19.17;72.70;100348.81;7353318;19;20010;-63
2022/08/22 06:00:42;;;;;;;0.00;0.00;;;;;;;19.17;74.63;100348.81;7360775;19;20018;-63
2022/08/22 06:03:29;;;;;;;0.00;0.00;;;;;;;19.23;73.04;100339.63;7361756;19;20022;-63
2022/08/22 06:05:58;;;;;;;0.00;0.00;;;;;;;19.25;74.48;100345.66;7362077;19;20014;-63
2022/08/22 06:08:33;;;;;;;0.00;0.00;;;;;;;19.18;74.36;100329.31;7360253;19;20557;-62
2022/08/22 06:11:06;;;;;;;0.00;0.00;;;;;;;19.33;74.41;100357.47;7361061;19;20010;-63
2022/08/22 06:13:44;;;;;;;0.00;0.00;;;;;;;19.37;73.31;100348.38;7360313;19;20014;-63
2022/08/22 06:16:13;;;;;;;0.00;0.00;;;;;;;19.40;74.42;100358.75;7359157;19;20010;-62
2022/08/22 06:18:41;;;;;;;0.00;0.00;;;;;;;19.42;74.93;100348.94;7358527;19;20920;-62
2022/08/22 06:21:11;;;;;;;0.00;0.00;;;;;;;19.45;74.77;100339.91;7356281;19;20006;-63
2022/08/22 06:23:45;;;;;;;0.00;0.00;;;;;;;19.51;73.85;100336.84;7360626;19;20048;-63
2022/08/22 06:26:12;;;;;;;0.00;0.00;;;;;;;19.48;74.53;100333.59;7361251;19;20018;-63
2022/08/22 06:28:41;;;;;;;0.03;0.03;;;;;;;19.55;74.37;100326.91;7357163;19;20037;-62
2022/08/22 06:31:24;;;;;;;0.00;0.00;;;;;;;19.56;73.80;100321.50;7357768;19;20018;-63
2022/08/22 06:34:01;;;;;;;0.00;0.00;;;;;;;19.57;73.25;100322.38;7361236;19;20017;-62
2022/08/22 06:36:30;;;;;;;0.00;0.00;;;;;;;19.66;74.59;100332.38;7360978;19;20028;-62
2022/08/22 06:39:32;;;;;;;0.00;0.00;;;;;;;19.68;73.49;100322.56;7356329;19;20538;-62
2022/08/22 06:42:01;;;;;;;0.03;0.03;;;;;;;19.76;74.26;100341.41;7252340;19;2004205;-62
2022/08/22 06:44:34;;;;;;;0.00;0.00;;;;;;;19.81;74.19;100339.31;7355269;19;20522;-62
2022/08/22 06:47:03;;;;;;;0.00;0.00;;;;;;;19.84;74.59;100330.31;7358014;19;20400;-63
2022/08/22 06:49:33;;;;;;;0.00;0.00;;;;;;;19.88;74.55;100337.97;7353005;19;20056;-62
2022/08/22 06:52:03;;;;;;;0.00;0.00;;;;;;;19.92;74.31;100339.47;7355509;19;20055;-62
2022/08/22 06:54:33;;;;;;;0.00;0.00;;;;;;;19.99;74.21;100347.00;7356271;19;20015;-62
2022/08/22 06:57:01;;;;;;;0.05;0.05;;;;;;;19.99;74.06;100355.78;7352252;19;20010;-63
2022/08/22 06:59:30;;;;;;;0.00;0.00;;;;;;;20.05;73.93;100354.53;7355213;19;20007;-62
2022/08/22 07:02:06;;;;;;;0.00;0.00;;;;;;;20.10;73.29;100353.25;7359076;19;20006;-62
2022/08/22 07:04:32;;;;;;;0.00;0.00;;;;;;;20.12;73.93;100353.16;7359539;19;20359;-62
2022/08/22 07:07:00;;;;;;;0.10;0.10;;;;;;;20.16;73.39;100342.22;7360326;19;20010;-62
2022/08/22 07:09:34;;;;;;;0.00;0.00;;;;;;;20.23;72.09;100337.38;7364432;19;20475;-62
2022/08/22 07:12:03;;;;;;;0.00;0.00;;;;;;;20.24;72.95;100339.06;7365582;19;20011;-63
2022/08/22 07:14:31;;;;;;;0.00;0.00;;;;;;;20.23;70.96;100337.38;7363321;19;20666;-62
2022/08/22 07:17:01;;;;;;;0.00;0.00;;;;;;;20.28;71.77;100335.25;7367031;19;20501;-62
2022/08/22 07:19:32;;;;;;;0.00;0.00;;;;;;;20.30;70.75;100337.78;7363022;19;20021;-62
2022/08/22 07:22:09;;;;;;;0.00;0.00;;;;;;;20.27;70.32;100357.41;7364563;19;20018;-63
2022/08/22 07:24:35;;;;;;;0.10;0.10;;;;;;;20.21;72.25;100349.88;7363973;19;20017;-64
2022/08/22 07:27:04;;;;;;;0.00;0.00;;;;;;;20.11;72.93;100344.34;7360626;19;22245;-63
2022/08/22 07:29:51;;;;;;;0.00;0.00;;;;;;;20.02;71.99;100346.78;7365004;19;20022;-63
2022/08/22 07:32:33;;;;;;;0.00;0.00;;;;;;;19.88;73.24;100353.03;7364968;19;20010;-63
2022/08/22 07:35:35;;;;;;;0.00;0.00;;;;;;;19.78;72.71;100350.13;7363534;19;20035;-63
2022/08/22 07:38:24;;;;;;;0.00;0.00;;;;;;;19.68;73.04;100341.09;7260596;19;2004513;-63
2022/08/22 07:41:14;;;;;;;0.00;0.00;;;;;;;19.60;73.60;100343.38;7364978;19;20027;-63
2022/08/22 07:44:00;;;;;;;0.00;0.00;;;;;;;19.52;75.22;100346.53;7363743;19;20011;-63
2022/08/22 07:46:44;;;;;;;0.00;0.00;;;;;;;19.45;74.96;100331.97;7365869;19;20459;-63
2022/08/22 07:49:24;;;;;;;0.00;0.00;;;;;;;19.45;75.95;100342.56;7360126;19;21261;-63
2022/08/22 07:51:58;;;;;;;0.00;0.00;;;;;;;19.37;76.76;100327.19;7365946;19;20581;-63
2022/08/22 07:54:47;;;;;;;0.03;0.03;;;;;;;19.49;75.18;100333.47;7361727;19;20131;-63
2022/08/22 07:57:20;;;;;;;0.00;0.00;;;;;;;19.48;77.68;100334.44;7364215;19;20655;-64
2022/08/22 07:59:51;;;;;;;0.00;0.00;;;;;;;19.56;77.66;100328.63;7364174;19;20010;-63
2022/08/22 08:02:18;;;;;;;0.00;0.00;;;;;;;19.62;77.58;100325.63;7363546;19;20035;-63
2022/08/22 08:04:45;;;;;;;0.00;0.00;;;;;;;19.54;77.06;100304.03;7364657;19;20121;-63
2022/08/22 08:07:15;;;;;;;0.05;0.05;;;;;;;19.76;75.97;100333.47;7353799;19;20002;-64
2022/08/22 08:09:45;;;;;;;0.10;0.10;;;;;;;19.83;75.47;100326.81;7363525;19;20050;-63
2022/08/22 08:12:14;;;;;;;0.00;0.00;;;;;;;19.77;75.84;100308.69;7365711;19;21052;-63
2022/08/22 08:14:43;;;;;;;0.00;0.00;;;;;;;19.89;75.93;100323.75;7363613;19;20015;-63
2022/08/22 08:17:18;;;;;;;0.00;0.00;;;;;;;19.99;74.04;100333.75;7363777;19;20585;-64
2022/08/22 08:19:46;;;;;;;0.10;0.10;;;;;;;20.00;73.68;100335.44;7362120;19;20010;-63
2022/08/22 08:22:16;;;;;;;0.00;0.00;;;;;;;20.00;73.27;100324.84;7364379;19;20471;-63
2022/08/22 08:24:43;;;;;;;0.00;0.00;;;;;;;19.96;72.82;100330.31;7361068;19;20006;-63
2022/08/22 08:30:07;;;;;;;0.00;0.00;;;;;;;19.84;72.83;100331.16;7261363;19;2004495;-63
2022/08/22 08:32:36;;;;;;;0.00;0.00;;;;;;;19.75;72.67;100326.47;7363991;19;20671;-63
2022/08/22 08:35:30;;;;;;;0.00;0.00;;;;;;;19.68;71.21;100325.19;7361682;19;20011;-63
2022/08/22 08:38:19;;;;;;;0.00;0.00;;;;;;;19.59;73.84;100325.78;7258447;19;2004635;-63
2022/08/22 08:40:53;;;;;;;0.00;0.00;;;;;;;19.50;74.83;100327.22;7261280;19;2004343;-63
2022/08/22 08:43:35;;;;;;;0.00;0.00;;;;;;;19.52;73.31;100324.50;7356966;19;20534;-63
2022/08/22 08:46:24;;;;;;;0.00;0.00;;;;;;;19.53;74.70;100328.84;7361729;19;20010;-63
2022/08/22 08:49:14;;;;;;;0.00;0.00;;;;;;;19.60;72.50;100338.09;7362731;19;20014;-64
2022/08/22 08:51:49;;;;;;;0.00;0.00;;;;;;;19.62;74.11;100326.47;7361329;19;20111;-63
2022/08/22 08:54:36;;;;;;;0.00;0.00;;;;;;;19.74;72.93;100332.72;7361708;19;20464;-63
2022/08/22 08:57:32;;;;;;;0.03;0.03;;;;;;;19.82;72.23;100321.59;7362363;19;20010;-63
2022/08/22 09:00:08;;;;;;;0.10;0.10;;;;;;;19.77;72.64;100318.41;7258400;19;2004415;-62
2022/08/22 09:02:55;;;;;;;0.00;0.00;;;;;;;19.89;74.06;100334.34;7358758;19;20017;-63
2022/08/22 09:05:39;;;;;;;;;;;;;;;19.99;70.37;100333.75;7356143;19;20543;-63
2022/08/22 09:08:26;;;;;;;0.00;0.00;;;;;;;19.98;72.17;100321.44;7357054;19;19926;-63
2022/08/22 09:11:25;;;;;;;0.00;0.00;;;;;;;20.10;71.96;100331.22;7358825;19;20014;-63
2022/08/22 09:14:11;;;;;;;0.00;0.00;;;;;;;19.88;73.34;100290.25;7248585;19;2004131;-63
2022/08/22 09:16:57;;;;;;;0.00;0.00;;;;;;;20.23;72.21;100332.06;7360317;19;20438;-63
2022/08/22 09:20:00;;;;;;;0.08;0.08;;;;;;;20.33;72.22;100332.28;7360852;19;20010;-62
2022/08/22 09:22:44;;;;;;;0.10;0.10;;;;;;;20.39;73.56;100331.84;7256178;19;2004611;-63
2022/08/22 09:25:41;;;;;;;0.00;0.00;;;;;;;20.55;72.28;100344.94;7358301;19;20015;-63
2022/08/22 09:28:14;;;;;;;0.00;0.00;;;;;;;20.63;72.85;100347.88;7257202;19;2004421;-63
2022/08/22 09:31:05;;;;;;;0.10;0.10;;;;;;;20.74;72.16;100348.00;7358075;19;20108;-63
2022/08/22 09:34:01;;;;;;;0.10;0.10;;;;;;;20.84;72.03;100351.69;7356347;19;20014;-62
2022/08/22 09:36:35;;;;;;;0.10;0.10;;;;;;;20.93;71.81;100342.22;7258654;19;2004338;-63
2022/08/22 09:39:25;;;;;;;0.00;0.00;;;;;;;20.91;71.00;100322.91;7358748;19;20018;-63
2022/08/22 09:41:59;;;;;;;0.00;0.00;;;;;;;21.05;71.19;100340.50;7359994;19;20010;-63
2022/08/22 09:44:43;;;;;;;0.00;0.00;;;;;;;21.07;71.26;100360.66;7358444;19;20018;-62
2022/08/22 09:47:11;;;;;;;0.00;0.00;;;;;;;21.08;71.76;100345.56;7359702;19;20810;-62
2022/08/22 09:49:36;;;;;;;0.10;0.10;;;;;;;21.06;71.93;100347.50;7357105;19;20014;-62
2022/08/22 09:52:11;;;;;;;0.00;0.00;;;;;;;21.06;72.56;100348.34;7360968;19;20898;-63
2022/08/22 09:54:43;;;;;;;0.00;0.00;;;;;;;21.07;72.02;100349.19;7358905;19;20007;-63
2022/08/22 09:57:42;;;;;;;0.00;0.00;;;;;;;21.13;71.16;100348.75;7360788;19;20588;-62
2022/08/22 10:00:19;;;;;;;0.00;0.00;;;;;;;21.07;70.69;100330.59;7256765;19;2004266;-63
2022/08/22 10:02:53;;;;;;;0.08;0.08;;;;;;;21.10;71.50;100346.31;7363780;19;20033;-63
2022/08/22 10:05:41;;;;;;;0.10;0.10;;;;;;;21.16;71.52;100348.53;7360026;19;20588;-62
2022/08/22 10:08:18;;;;;;;0.00;0.00;;;;;;;21.13;71.43;100354.06;7358880;19;20376;-63
2022/08/22 10:11:06;;;;;;;0.10;0.10;;;;;;;21.15;70.71;100357.47;7360728;19;20010;-63
2022/08/22 10:13:54;;;;;;;0.00;0.00;;;;;;;21.12;71.67;100352.34;7360085;19;20094;-63
2022/08/22 10:16:29;;;;;;;0.00;0.00;;;;;;;21.05;71.88;100353.78;7360934;19;20018;-62
2022/08/22 10:19:23;;;;;;;0.00;0.00;;;;;;;21.05;72.57;100354.63;7357261;19;20938;-62
2022/08/22 10:22:16;;;;;;;0.00;0.00;;;;;;;21.07;71.75;100360.66;7257057;19;2004471;-63
2022/08/22 10:25:00;;;;;;;0.00;0.00;;;;;;;21.10;71.89;100368.41;7259321;19;2004557;-63
2022/08/22 10:27:44;;;;;;;0.00;0.00;;;;;;;21.16;71.79;100353.84;7361941;19;20106;-63
2022/08/22 10:30:54;;;;;;;0.00;0.00;;;;;;;21.26;72.05;100360.19;7360291;19;20031;-62
2022/08/22 10:33:34;;;;;;;0.00;0.00;;;;;;;21.32;72.95;100359.75;7258330;19;2004495;-63
2022/08/22 10:36:47;;;;;;;0.00;0.00;;;;;;;21.55;70.72;100365.22;7358850;19;20010;-62
2022/08/22 10:39:20;;;;;;;0.00;0.00;;;;;;;21.62;72.48;100371.75;7252032;19;2005077;-62
2022/08/22 10:42:08;;;;;;;0.00;0.00;;;;;;;21.69;70.84;100372.97;7361281;19;20787;-62
2022/08/22 10:44:49;;;;;;;0.00;0.00;;;;;;;21.67;71.65;100374.91;7363344;19;20381;-62
2022/08/22 10:47:20;;;;;;;0.00;0.00;;;;;;;21.66;71.70;100381.22;7365641;19;20528;-62
2022/08/22 10:49:53;;;;;;;0.00;0.00;;;;;;;21.67;72.32;100373.09;7365807;19;20154;-62
2022/08/22 10:52:29;;;;;;;0.00;0.00;;;;;;;21.71;72.33;100373.75;7366601;19;20014;-63
2022/08/22 10:54:57;;;;;;;0.00;0.00;;;;;;;21.82;71.94;100373.78;7366746;19;20913;-62
2022/08/22 10:57:22;;;;;;;0.00;0.00;;;;;;;21.91;71.94;100378.41;7367849;19;20014;-62
2022/08/22 11:00:09;;;;;;;0.00;0.00;;;;;;;22.10;71.05;100375.22;7361763;19;20007;-62
2022/08/22 11:02:48;;;;;;;0.10;0.10;;;;;;;22.23;70.71;100362.69;7365600;19;20838;-62
2022/08/22 11:05:21;;;;;;;0.00;0.00;;;;;;;22.48;70.87;100374.09;7364174;19;20010;-62
2022/08/22 11:08:05;;;;;;;0.00;0.00;;;;;;;22.67;71.05;100370.88;7358787;19;20017;-62
2022/08/22 11:11:08;;;;;;;0.10;0.10;;;;;;;22.94;69.79;100365.19;7365410;19;20094;-62
2022/08/22 11:13:51;;;;;;;0.03;0.03;;;;;;;23.01;70.46;100361.06;7263206;19;2004530;-62
2022/08/22 11:16:45;;;;;;;0.00;0.00;;;;;;;23.24;69.60;100361.88;7365693;19;20588;-61
2022/08/22 11:19:52;;;;;;;0.00;0.00;;;;;;;23.38;69.10;100356.28;7257863;19;2004595;-61
2022/08/22 11:22:45;;;;;;;0.00;0.00;;;;;;;23.42;69.59;100360.41;7263265;19;2004463;-62
2022/08/22 11:25:14;;;;;;;0.00;0.00;;;;;;;23.50;67.47;100360.59;7265270;19;2004461;-62
2022/08/22 11:28:07;;;;;;;0.10;0.10;;;;;;;23.58;67.35;100365.31;7361139;19;20355;-62
2022/08/22 11:31:07;;;;;;;0.00;0.00;;;;;;;23.59;67.19;100353.69;7260890;19;2004324;-62
2022/08/22 11:33:44;;;;;;;0.00;0.00;;;;;;;23.54;66.76;100351.38;7251550;19;2004426;-62
2022/08/22 11:36:40;;;;;;;0.00;0.00;;;;;;;23.60;66.92;100366.03;7364599;19;20017;-62
2022/08/22 11:39:14;;;;;;;0.00;0.00;;;;;;;23.44;67.42;100353.13;7261570;19;2004399;-62
2022/08/22 11:42:07;;;;;;;0.10;0.10;;;;;;;23.50;67.13;100354.44;7364157;19;20010;-62
2022/08/22 11:44:38;;;;;;;0.00;0.00;;;;;;;23.46;67.34;100359.16;7261641;19;2004296;-62
2022/08/22 11:47:12;;;;;;;0.10;0.10;;;;;;;23.42;68.23;100355.06;7364274;19;20033;-62
2022/08/22 11:49:56;;;;;;;0.10;0.10;;;;;;;23.43;67.29;100364.75;7364793;19;20022;-62
2022/08/22 11:52:24;;;;;;;0.00;0.00;;;;;;;23.48;66.75;100351.91;7364772;19;20101;-62
2022/08/22 11:55:16;;;;;;;0.00;0.00;;;;;;;23.72;67.53;100342.84;7362334;19;20014;-62
2022/08/22 11:57:48;;;;;;;0.00;0.00;;;;;;;23.95;67.16;100348.94;7364931;19;20069;-62
2022/08/22 12:00:14;;;;;;;0.00;0.00;;;;;;;24.33;67.32;100348.34;7363642;19;20015;-63
2022/08/22 12:02:51;;;;;;;0.00;0.00;;;;;;;24.78;65.65;100356.03;7365902;19;20759;-62
2022/08/22 12:05:55;;;;;;;0.10;0.10;;;;;;;25.19;65.73;100340.84;7364504;19;20683;-62
2022/08/22 12:08:32;;;;;;;0.10;0.10;;;;;;;25.40;63.32;100333.59;7259172;19;2004481;-62
2022/08/22 12:11:11;;;;;;;0.10;0.10;;;;;;;25.55;63.14;100348.25;7365888;19;20225;-62
2022/08/22 12:13:48;;;;;;;0.00;0.00;;;;;;;25.70;62.26;100323.75;7362229;19;20022;-62
2022/08/22 12:16:35;;;;;;;0.10;0.10;;;;;;;26.11;61.63;100336.00;7352070;19;20518;-62
2022/08/22 12:19:26;;;;;;;0.00;0.00;;;;;;;26.55;61.04;100331.78;7359151;19;20029;-61
2022/08/22 12:22:10;;;;;;;0.10;0.10;;;;;;;26.86;60.78;100334.19;7261179;19;2004279;-62
2022/08/22 12:25:12;;;;;;;0.10;0.10;;;;;;;27.21;61.40;100329.94;7363858;19;20466;-62
2022/08/22 12:27:49;;;;;;;0.10;0.10;;;;;;;27.39;56.87;100336.19;7258494;19;2004403;-63
2022/08/22 12:30:23;;;;;;;0.00;0.00;;;;;;;27.60;55.68;100338.56;7359594;19;20010;-62